createdAt,value
2018-06-02T00:04:47.485Z,17.80
2018-06-02T00:09:40.775Z,17.80
2018-06-02T00:14:34.076Z,17.70
2018-06-02T00:19:27.521Z,17.70
2018-06-02T00:24:20.841Z,17.50
2018-06-02T00:29:14.526Z,17.50
2018-06-02T00:34:07.818Z,17.40
2018-06-02T00:39:01.158Z,17.40
2018-06-02T00:43:54.570Z,17.40
2018-06-02T00:48:47.150Z,17.40
2018-06-02T00:53:40.471Z,17.20
2018-06-02T00:58:33.766Z,17.10
2018-06-02T01:03:27.058Z,17.20
2018-06-02T01:08:21.109Z,17.00
2018-06-02T01:13:14.401Z,17.00
2018-06-02T01:18:07.687Z,16.80
2018-06-02T01:23:01.778Z,16.90
2018-06-02T01:27:55.940Z,16.80
2018-06-02T01:32:49.327Z,16.90
2018-06-02T01:37:42.669Z,16.70
2018-06-02T01:42:35.997Z,16.80
2018-06-02T01:47:29.303Z,16.70
2018-06-02T01:52:23.371Z,16.60
2018-06-02T01:57:16.657Z,16.60
2018-06-02T02:02:09.959Z,16.70
2018-06-02T02:07:04.011Z,16.40
2018-06-02T02:11:57.304Z,16.40
2018-06-02T02:16:50.590Z,16.40
2018-06-02T02:21:43.898Z,16.40
2018-06-02T02:26:37.174Z,16.40
2018-06-02T02:31:30.545Z,16.40
2018-06-02T02:36:24.577Z,16.30
2018-06-02T02:41:17.877Z,16.30
2018-06-02T02:46:11.168Z,16.30
2018-06-02T02:51:04.543Z,16.30
2018-06-02T02:55:57.839Z,16.20
2018-06-02T03:00:52.322Z,16.30
2018-06-02T03:05:45.613Z,16.30
2018-06-02T03:10:38.912Z,16.30
2018-06-02T03:15:33.592Z,16.10
2018-06-02T03:20:26.964Z,16.10
2018-06-02T03:25:20.280Z,16.00
2018-06-02T03:30:14.338Z,16.00
2018-06-02T03:35:07.625Z,16.00
2018-06-02T03:40:00.923Z,16.00
2018-06-02T03:44:54.972Z,16.00
2018-06-02T03:49:49.043Z,16.00
2018-06-02T03:54:42.399Z,16.10
2018-06-02T03:59:35.661Z,16.20
2018-06-02T04:04:28.940Z,16.60
2018-06-02T04:09:22.997Z,18.60
2018-06-02T04:14:17.814Z,18.60
2018-06-02T04:19:11.109Z,19.50
2018-06-02T04:24:04.390Z,20.20
2018-06-02T04:28:57.701Z,20.80
2018-06-02T04:33:50.999Z,20.40
2018-06-02T04:38:45.156Z,20.30
2018-06-02T04:43:39.209Z,21.90
2018-06-02T04:48:32.509Z,21.90
2018-06-02T04:53:26.557Z,22.90
2018-06-02T04:58:19.848Z,23.80
2018-06-02T05:03:13.453Z,24.60
2018-06-02T05:08:06.755Z,24.80
2018-06-02T05:13:00.041Z,24.90
2018-06-02T05:17:54.097Z,25.10
2018-06-02T05:22:47.366Z,25.10
2018-06-02T05:27:40.709Z,24.70
2018-06-02T05:32:33.990Z,25.00
2018-06-02T05:37:27.289Z,25.70
2018-06-02T05:42:20.577Z,26.30
2018-06-02T05:47:13.881Z,26.70
2018-06-02T05:52:07.153Z,26.90
2018-06-02T05:57:00.475Z,26.90
2018-06-02T06:01:53.849Z,27.60
2018-06-02T06:06:47.186Z,28.00
2018-06-02T06:11:40.465Z,27.80
2018-06-02T06:16:34.900Z,28.30
2018-06-02T06:21:28.937Z,27.10
2018-06-02T06:26:22.236Z,27.00
2018-06-02T06:31:15.524Z,26.20
2018-06-02T06:36:08.805Z,24.40
2018-06-02T06:41:03.020Z,24.40
2018-06-02T06:45:57.081Z,25.40
2018-06-02T06:50:50.363Z,25.30
2018-06-02T06:55:43.652Z,25.70
2018-06-02T07:00:36.936Z,26.10
2018-06-02T07:05:30.222Z,26.10
2018-06-02T07:10:23.490Z,25.60
2018-06-02T07:15:17.558Z,26.00
2018-06-02T07:20:10.857Z,26.00
2018-06-02T07:25:04.152Z,25.80
2018-06-02T07:29:58.241Z,25.40
2018-06-02T07:34:51.529Z,25.40
2018-06-02T07:39:45.590Z,24.50
2018-06-02T07:44:38.889Z,24.50
2018-06-02T07:49:32.173Z,24.50
2018-06-02T07:54:26.232Z,24.20
2018-06-02T07:59:19.527Z,24.20
2018-06-02T08:04:12.814Z,24.40
2018-06-02T08:09:06.136Z,24.70
2018-06-02T08:13:59.428Z,24.80
2018-06-02T08:18:52.739Z,24.60
2018-06-02T08:23:46.057Z,24.20
2018-06-02T08:28:39.344Z,25.30
2018-06-02T08:33:33.544Z,24.90
2018-06-02T08:38:26.763Z,25.80
2018-06-02T08:43:20.077Z,25.90
2018-06-02T08:48:13.363Z,26.00
2018-06-02T08:53:06.763Z,25.60
2018-06-02T08:58:00.175Z,25.20
2018-06-02T09:02:57.000Z,25.50
2018-06-02T09:07:50.284Z,24.90
2018-06-02T09:12:43.638Z,25.40
2018-06-02T09:17:36.926Z,26.20
2018-06-02T09:22:30.280Z,26.30
2018-06-02T09:27:24.376Z,26.90
2018-06-02T09:32:17.713Z,26.90
2018-06-02T09:37:10.998Z,27.10
2018-06-02T09:42:04.285Z,26.70
2018-06-02T09:46:57.569Z,26.70
2018-06-02T09:51:50.881Z,25.80
2018-06-02T09:56:44.167Z,26.00
2018-06-02T10:08:37.095Z,27.40
2018-06-02T10:13:30.370Z,27.50
2018-06-02T10:18:23.657Z,27.60
2018-06-02T10:23:16.954Z,27.90
2018-06-02T10:28:10.266Z,27.90
2018-06-02T10:33:04.333Z,28.40
2018-06-02T10:37:57.617Z,28.30
2018-06-02T10:42:50.897Z,28.40
2018-06-02T10:47:44.192Z,28.50
2018-06-02T10:52:37.492Z,28.30
2018-06-02T10:57:30.808Z,28.20
2018-06-02T11:02:24.124Z,28.20
2018-06-02T11:07:18.186Z,28.40
2018-06-02T11:12:11.453Z,28.40
2018-06-02T11:17:04.771Z,28.30
2018-06-02T11:21:58.841Z,27.30
2018-06-02T11:26:52.378Z,27.30
2018-06-02T11:31:45.680Z,27.50
2018-06-02T11:36:38.997Z,27.90
2018-06-02T11:41:32.350Z,27.20
2018-06-02T11:46:25.641Z,26.90
2018-06-02T11:51:18.924Z,27.10
2018-06-02T11:56:12.236Z,27.50
2018-06-02T12:01:05.539Z,27.30
2018-06-02T12:05:58.815Z,27.40
2018-06-02T12:10:52.093Z,27.90
2018-06-02T12:15:45.385Z,27.80
2018-06-02T12:20:38.724Z,27.40
2018-06-02T12:25:32.005Z,27.70
2018-06-02T12:30:25.396Z,28.00
2018-06-02T12:35:18.887Z,28.40
2018-06-02T12:40:12.201Z,28.50
2018-06-02T12:45:05.474Z,27.90
2018-06-02T12:49:58.773Z,27.90
2018-06-02T12:54:52.096Z,27.90
2018-06-02T12:59:45.389Z,28.20
2018-06-02T13:04:39.843Z,28.20
2018-06-02T13:09:33.910Z,29.00
2018-06-02T13:14:27.238Z,29.00
2018-06-02T13:19:20.535Z,29.00
2018-06-02T13:24:13.853Z,28.30
2018-06-02T13:29:07.133Z,28.50
2018-06-02T13:34:00.451Z,28.30
2018-06-02T13:38:53.736Z,28.30
2018-06-02T13:43:47.026Z,28.60
2018-06-02T13:48:40.337Z,28.00
2018-06-02T13:53:33.668Z,27.70
2018-06-02T13:58:26.954Z,27.40
2018-06-02T14:03:21.085Z,27.60
2018-06-02T14:08:14.377Z,28.20
2018-06-02T14:13:07.657Z,28.70
2018-06-02T14:18:00.954Z,28.10
2018-06-02T14:22:55.110Z,27.50
2018-06-02T14:27:48.414Z,27.50
2018-06-02T14:32:41.700Z,27.70
2018-06-02T14:37:36.714Z,27.10
2018-06-02T14:42:30.027Z,27.20
2018-06-02T14:47:23.333Z,27.60
2018-06-02T14:52:16.674Z,27.30
2018-06-02T14:57:09.960Z,27.60
2018-06-02T15:02:03.247Z,27.60
2018-06-02T15:06:56.546Z,27.30
2018-06-02T15:11:49.868Z,26.30
2018-06-02T15:16:43.929Z,26.30
2018-06-02T15:21:37.260Z,26.30
2018-06-02T15:26:30.577Z,26.30
2018-06-02T15:31:23.976Z,26.50
2018-06-02T15:36:17.978Z,26.20
2018-06-02T15:41:14.435Z,26.20
2018-06-02T15:46:07.890Z,26.60
2018-06-02T15:51:01.239Z,26.90
2018-06-02T15:55:54.557Z,26.80
2018-06-02T16:00:47.899Z,26.40
2018-06-02T16:05:41.121Z,26.70
2018-06-02T16:10:34.442Z,26.40
2018-06-02T16:15:27.741Z,26.60
2018-06-02T16:20:21.032Z,26.50
2018-06-02T16:25:14.421Z,26.60
2018-06-02T16:30:07.706Z,26.70
2018-06-02T16:35:01.022Z,26.90
2018-06-02T16:39:54.321Z,26.70
2018-06-02T16:44:47.609Z,26.30
2018-06-02T16:49:40.906Z,26.40
2018-06-02T16:54:34.241Z,26.30
2018-06-02T16:59:27.580Z,26.30
2018-06-02T17:04:20.861Z,26.20
2018-06-02T17:09:14.232Z,26.20
2018-06-02T17:14:07.604Z,25.80
2018-06-02T17:19:01.702Z,25.80
2018-06-02T17:23:54.986Z,25.80
2018-06-02T17:28:48.285Z,25.70
2018-06-02T17:33:42.341Z,25.70
2018-06-02T17:38:35.658Z,25.70
2018-06-02T17:43:29.745Z,25.70
2018-06-02T17:48:23.814Z,25.40
2018-06-02T17:53:17.456Z,25.40
2018-06-02T17:58:10.742Z,25.30
2018-06-02T18:03:04.058Z,25.30
2018-06-02T18:07:57.348Z,25.40
2018-06-02T18:12:50.625Z,25.40
2018-06-02T18:17:43.910Z,25.10
2018-06-02T18:22:37.193Z,25.00
2018-06-02T18:27:30.531Z,24.90
2018-06-02T18:32:23.811Z,24.80
2018-06-02T18:37:17.112Z,24.80
2018-06-02T18:42:11.688Z,24.80
2018-06-02T18:47:04.987Z,24.60
2018-06-02T18:51:58.273Z,24.50
2018-06-02T18:56:51.551Z,24.20
2018-06-02T19:01:44.888Z,24.50
2018-06-02T19:06:38.182Z,24.50
2018-06-02T19:11:31.468Z,24.40
2018-06-02T19:16:24.777Z,24.10
2018-06-02T19:21:18.838Z,22.90
2018-06-02T19:26:12.146Z,22.80
2018-06-02T19:31:06.226Z,22.50
2018-06-02T19:35:59.760Z,22.50
2018-06-02T19:40:53.074Z,22.40
2018-06-02T19:45:46.338Z,22.40
2018-06-02T19:50:39.691Z,22.30
2018-06-02T19:55:34.001Z,22.20
2018-06-02T20:00:27.283Z,22.30
2018-06-02T20:05:20.591Z,22.20
2018-06-02T20:10:13.900Z,22.10
2018-06-02T20:15:07.956Z,22.10
2018-06-02T20:20:01.290Z,22.00
2018-06-02T20:24:54.586Z,21.90
2018-06-02T20:29:47.871Z,22.00
2018-06-02T20:34:41.363Z,22.00
2018-06-02T20:39:34.636Z,21.80
2018-06-02T20:44:27.946Z,21.60
2018-06-02T20:49:21.280Z,21.60
2018-06-02T20:54:14.575Z,21.50
2018-06-02T20:59:07.873Z,21.30
2018-06-02T21:04:01.185Z,21.20
2018-06-02T21:08:56.090Z,21.30
2018-06-02T21:13:50.151Z,21.00
2018-06-02T21:18:43.469Z,21.00
2018-06-02T21:23:37.532Z,20.80
2018-06-02T21:28:30.885Z,20.80
2018-06-02T21:33:24.170Z,20.90
2018-06-02T21:38:17.492Z,20.70
2018-06-02T21:43:11.534Z,20.70
2018-06-02T21:48:04.831Z,20.70
2018-06-02T21:52:58.110Z,20.70
2018-06-02T21:57:51.423Z,20.60
2018-06-02T22:02:45.461Z,20.40
2018-06-02T22:07:38.779Z,20.40
2018-06-02T22:12:32.065Z,20.30
2018-06-02T22:17:25.365Z,20.20
2018-06-02T22:22:19.426Z,20.00
2018-06-02T22:27:12.746Z,20.00
2018-06-02T22:32:06.017Z,20.00
2018-06-02T22:36:59.346Z,19.90
2018-06-02T22:41:52.642Z,19.80
2018-06-02T22:46:45.929Z,19.80
2018-06-02T22:51:57.641Z,19.60
2018-06-02T22:56:51.838Z,19.50
2018-06-02T23:01:45.166Z,19.50
2018-06-02T23:06:38.462Z,19.40
2018-06-02T23:11:31.764Z,19.50
2018-06-02T23:16:25.115Z,19.40
2018-06-02T23:21:18.445Z,19.30
2018-06-02T23:26:11.743Z,19.10
2018-06-02T23:31:05.037Z,19.00
2018-06-02T23:35:58.333Z,18.90
2018-06-02T23:40:51.618Z,18.80
2018-06-02T23:45:44.915Z,18.80
2018-06-02T23:50:38.198Z,18.70
2018-06-02T23:55:31.512Z,18.60
